Time;durP1;ratioP1;P1;durP2;ratioP2;P2;SDS_P1;SDS_P2;PMS_P1;PMS_P2;Temp;Humidity;BMP_temperature;BMP_pressure;BME280_temperature;BME280_humidity;BME280_pressure;Samples;Min_cycle;Max_cycle;Signal;HPM_P1;HPM_P2
2022/04/05 00:01:14;;;;;;;;;;;;;;;10.65;100.00;98293.72;5096948;28;20006;-78
2022/04/05 00:03:42;;;;;;;;;;;;;;;10.78;100.00;98304.94;5096931;28;19931;-77
2022/04/05 00:06:09;;;;;;;;;;;;;;;10.70;100.00;98297.97;5096747;28;20006;-77
2022/04/05 00:08:36;;;;;;;;;;;;;;;10.94;100.00;98307.66;5096820;28;20367;-77
2022/04/05 00:11:03;;;;;;;;;;;;;;;11.15;100.00;98307.03;5078658;28;20441;-77
2022/04/05 00:13:30;;;;;;;;;;;;;;;11.13;100.00;98286.34;5078544;28;20398;-77
2022/04/05 00:15:57;;;;;;;;;;;;;;;10.94;100.00;98291.69;5078609;28;19924;-78
2022/04/05 00:18:25;;;;;;;;;;;;;;;10.81;100.00;98298.47;5078802;28;19927;-77
2022/04/05 00:20:52;;;;;;;;;;;;;;;10.89;100.00;98297.03;5078493;28;20418;-77
2022/04/05 00:23:19;;;;;;;;;;;;;;;10.93;100.00;98294.91;5078465;28;20323;-77
2022/04/05 00:25:46;;;;;;;;;;;;;;;10.89;100.00;98283.84;5096198;28;20335;-78
2022/04/05 00:28:13;;;;;;;;;;;;;;;10.74;100.00;98293.88;5078290;28;20337;-77
2022/04/05 00:30:40;;;;;;;;;;;;;;;10.77;100.00;98281.00;5078045;28;20371;-77
2022/04/05 00:33:07;;;;;;;;;;;;;;;10.79;100.00;98278.56;5061818;28;20359;-77
2022/04/05 00:35:34;;;;;;;;;;;;;;;10.87;100.00;98271.53;5061594;28;20355;-77
2022/04/05 00:38:01;;;;;;;;;;;;;;;10.78;100.00;98266.59;5096293;28;20378;-77
2022/04/05 00:40:30;;;;;;;;;;;;;;;10.63;100.00;98282.19;5078113;28;20437;-77
2022/04/05 00:42:58;;;;;;;;;;;;;;;10.87;100.00;98291.09;5096204;28;19920;-77
2022/04/05 00:45:25;;;;;;;;;;;;;;;10.66;100.00;98283.34;5095973;28;20434;-77
2022/04/05 00:47:54;;;;;;;;;;;;;;;11.04;100.00;98280.63;5096037;28;19920;-77
2022/04/05 00:50:22;;;;;;;;;;;;;;;10.62;100.00;98251.91;5096039;28;19927;-77
2022/04/05 00:52:49;;;;;;;;;;;;;;;10.76;100.00;98273.84;5078106;28;19920;-77
2022/04/05 00:55:23;;;;;;;;;;;;;;;10.76;100.00;98268.28;5095756;28;20347;-77
2022/04/05 00:57:51;;;;;;;;;;;;;;;10.67;100.00;98265.34;5095968;28;20354;-77
2022/04/05 01:00:18;;;;;;;;;;;;;;;10.76;100.00;98268.28;5078126;28;19920;-77
2022/04/05 01:02:47;;;;;;;;;;;;;;;10.84;100.00;98245.25;5077982;28;20364;-77
2022/04/05 01:05:15;;;;;;;;;;;;;;;10.74;100.00;98273.50;5095803;28;20005;-77
2022/04/05 01:07:44;;;;;;;;;;;;;;;10.83;100.00;98268.06;5077684;28;19946;-77
2022/04/05 01:10:11;;;;;;;;;;;;;;;10.82;100.00;98258.91;5077132;28;20415;-77
2022/04/05 01:12:38;;;;;;;;;;;;;;;10.81;100.00;98253.75;5095806;28;19973;-77
2022/04/05 01:15:05;;;;;;;;;;;;;;;10.41;100.00;98252.53;5077740;28;19974;-77
2022/04/05 01:17:34;;;;;;;;;;;;;;;10.57;100.00;98272.78;5044291;28;20015;-78
2022/04/05 01:20:02;;;;;;;;;;;;;;;10.86;100.00;98250.41;5095624;28;19920;-77
2022/04/05 01:22:29;;;;;;;;;;;;;;;10.69;100.00;98254.53;5060983;28;19924;-77
2022/04/05 01:24:57;;;;;;;;;;;;;;;10.62;100.00;98235.16;5077358;28;20321;-77
2022/04/05 01:27:27;;;;;;;;;;;;;;;10.60;100.00;98248.81;5095371;28;19927;-77
2022/04/05 01:29:55;;;;;;;;;;;;;;;10.56;100.00;98248.09;5077270;28;20252;-77
2022/04/05 01:32:22;;;;;;;;;;;;;;;10.68;100.00;98264.09;5075172;28;19920;-77
2022/04/05 01:34:49;;;;;;;;;;;;;;;10.54;100.00;98248.53;5075178;28;19931;-77
2022/04/05 01:37:16;;;;;;;;;;;;;;;10.71;100.00;98257.63;5057169;28;19921;-77
2022/04/05 01:39:43;;;;;;;;;;;;;;;10.79;100.00;98251.41;5074768;28;19921;-77
2022/04/05 01:42:12;;;;;;;;;;;;;;;10.70;100.00;98242.09;5074657;28;19924;-77
2022/04/05 01:44:39;;;;;;;;;;;;;;;10.62;100.00;98254.72;5056546;28;20375;-77
2022/04/05 01:47:09;;;;;;;;;;;;;;;10.66;100.00;98252.63;5056576;28;19920;-77
2022/04/05 01:49:38;;;;;;;;;;;;;;;10.63;100.00;98256.28;5074453;28;20352;-78
2022/04/05 01:52:05;;;;;;;;;;;;;;;10.53;100.00;98233.03;5074181;28;19927;-77
2022/04/05 01:54:33;;;;;;;;;;;;;;;10.80;100.00;98257.75;5072652;28;19920;-78
2022/04/05 01:57:00;;;;;;;;;;;;;;;10.53;100.00;98237.81;5073023;28;19921;-77
2022/04/05 01:59:29;;;;;;;;;;;;;;;10.60;100.00;98259.97;5056267;28;19920;-77
2022/04/05 02:01:56;;;;;;;;;;;;;;;10.65;100.00;98248.22;5057061;28;20012;-77
2022/04/05 02:04:23;;;;;;;;;;;;;;;10.61;100.00;98244.78;5074798;28;19920;-77
2022/04/05 02:06:51;;;;;;;;;;;;;;;10.51;100.00;98243.84;5074884;28;19920;-77
2022/04/05 02:09:18;;;;;;;;;;;;;;;10.60;100.00;98240.41;5056619;28;19920;-77
2022/04/05 02:11:46;;;;;;;;;;;;;;;10.58;100.00;98254.03;5056738;28;19928;-77
2022/04/05 02:14:32;;;;;;;;;;;;;;;10.34;100.00;98247.94;5074356;28;19924;-77
2022/04/05 02:17:04;;;;;;;;;;;;;;;10.60;100.00;98241.19;5039917;28;20279;-78
2022/04/05 02:19:32;;;;;;;;;;;;;;;10.39;100.00;98239.00;5039778;28;19924;-77
2022/04/05 02:21:59;;;;;;;;;;;;;;;10.55;100.00;98240.97;5055760;28;19955;-77
2022/04/05 02:24:28;;;;;;;;;;;;;;;10.63;100.00;98245.88;5056410;28;19943;-77
2022/04/05 02:26:55;;;;;;;;;;;;;;;10.36;100.00;98239.13;5056332;28;19926;-77
2022/04/05 02:29:23;;;;;;;;;;;;;;;10.53;100.00;98255.38;5056470;28;19981;-77
2022/04/05 02:31:56;;;;;;;;;;;;;;;10.62;100.00;98257.50;5069641;28;20351;-77
2022/04/05 02:34:24;;;;;;;;;;;;;;;10.68;100.00;98250.13;5056287;28;19924;-77
2022/04/05 02:36:58;;;;;;;;;;;;;;;10.35;100.00;98243.13;5056028;28;19921;-77
2022/04/05 02:39:26;;;;;;;;;;;;;;;10.38;100.00;98243.03;5073992;28;19973;-77
2022/04/05 02:41:58;;;;;;;;;;;;;;;10.48;100.00;98252.34;5056183;28;19920;-77
2022/04/05 02:44:26;;;;;;;;;;;;;;;10.52;100.00;98245.44;5055903;28;19920;-78
2022/04/05 02:46:59;;;;;;;;;;;;;;;10.49;100.00;98259.47;5056009;28;19920;-77
2022/04/05 02:49:29;;;;;;;;;;;;;;;10.36;100.00;98239.13;5089689;28;19920;-77
2022/04/05 02:51:56;;;;;;;;;;;;;;;10.40;100.00;98262.94;5073612;28;19924;-77
2022/04/05 02:54:30;;;;;;;;;;;;;;;10.34;100.00;98249.94;5039424;28;20383;-77
2022/04/05 02:56:59;;;;;;;;;;;;;;;10.35;100.00;98257.88;5055948;28;19962;-77
2022/04/05 02:59:26;;;;;;;;;;;;;;;10.48;100.00;98247.53;5072516;28;19920;-78
2022/04/05 03:01:54;;;;;;;;;;;;;;;10.30;100.00;98249.25;5072521;28;19924;-77
2022/04/05 03:04:21;;;;;;;;;;;;;;;10.52;100.00;98261.41;5055897;28;19924;-78
2022/04/05 03:06:50;;;;;;;;;;;;;;;10.31;100.00;98260.00;5055475;28;19920;-77
2022/04/05 03:09:17;;;;;;;;;;;;;;;10.39;100.00;98246.63;5089224;28;19924;-77
2022/04/05 03:11:45;;;;;;;;;;;;;;;10.29;100.00;98245.69;5039252;28;19927;-77
2022/04/05 03:14:16;;;;;;;;;;;;;;;10.42;100.00;98215.00;5039180;28;19920;-77
2022/04/05 03:16:43;;;;;;;;;;;;;;;10.25;100.00;98233.81;5055808;28;19928;-77
2022/04/05 03:19:16;;;;;;;;;;;;;;;10.29;100.00;98250.47;5039195;28;19969;-77
2022/04/05 03:21:46;;;;;;;;;;;;;;;10.13;100.00;98231.00;5055382;28;19974;-77
2022/04/05 03:24:13;;;;;;;;;;;;;;;10.23;100.00;98238.28;5073636;28;19920;-77
2022/04/05 03:26:40;;;;;;;;;;;;;;;10.61;100.00;98244.78;5072276;28;20015;-77
2022/04/05 03:29:07;;;;;;;;;;;;;;;10.42;100.00;98226.19;5039059;28;19920;-78
2022/04/05 03:31:34;;;;;;;;;;;;;;;10.43;100.00;98227.75;5075553;28;20264;-77
2022/04/05 03:34:02;;;;;;;;;;;;;;;10.37;100.00;98240.69;5078409;28;19920;-77
2022/04/05 03:36:29;;;;;;;;;;;;;;;10.29;100.00;98237.31;5079352;28;19927;-77
2022/04/05 03:38:56;;;;;;;;;;;;;;;10.34;100.00;98230.41;5079504;28;19920;-77
2022/04/05 03:41:24;;;;;;;;;;;;;;;10.34;100.00;98219.22;5062915;28;19920;-77
2022/04/05 03:43:53;;;;;;;;;;;;;;;10.13;100.00;98239.38;5062914;28;19920;-77
2022/04/05 03:46:27;;;;;;;;;;;;;;;10.33;100.00;98223.25;5062453;28;19926;-77
2022/04/05 03:48:55;;;;;;;;;;;;;;;10.26;100.00;98217.84;5079129;28;19920;-77
2022/04/05 03:51:47;;;;;;;;;;;;;;;10.13;100.00;98203.06;5079345;28;20012;-77
2022/04/05 03:54:15;;;;;;;;;;;;;;;10.47;100.00;98223.63;5079012;28;19969;-77
2022/04/05 03:56:44;;;;;;;;;;;;;;;10.42;100.00;98199.03;5046023;28;20279;-77
2022/04/05 03:59:12;;;;;;;;;;;;;;;10.25;100.00;98205.88;5062614;28;19924;-77
2022/04/05 04:01:39;;;;;;;;;;;;;;;10.37;100.00;98201.59;5078960;28;19924;-77
2022/04/05 04:04:08;;;;;;;;;;;;;;;10.42;100.00;98204.59;5078669;28;20019;-77
2022/04/05 04:06:36;;;;;;;;;;;;;;;10.43;100.00;98210.97;5078753;28;19919;-77
2022/04/05 04:09:05;;;;;;;;;;;;;;;10.41;100.00;98199.47;5079102;28;19920;-77
2022/04/05 04:11:40;;;;;;;;;;;;;;;10.47;100.00;98200.47;5096834;28;19920;-77
2022/04/05 04:14:09;;;;;;;;;;;;;;;10.37;100.00;98199.59;5079203;28;19966;-77
2022/04/05 04:16:37;;;;;;;;;;;;;;;10.32;100.00;98207.72;5078707;28;19920;-77
2022/04/05 04:19:04;;;;;;;;;;;;;;;10.23;100.00;98196.41;5078286;28;19924;-77
2022/04/05 04:21:34;;;;;;;;;;;;;;;10.53;100.00;98209.88;5078654;28;19924;-77
2022/04/05 04:24:02;;;;;;;;;;;;;;;10.33;100.00;98189.75;5058196;28;20401;-78
2022/04/05 04:26:29;;;;;;;;;;;;;;;10.39;100.00;98193.56;5078348;28;19920;-77
2022/04/05 04:28:59;;;;;;;;;;;;;;;10.48;100.00;98199.28;5078313;28;19977;-77
2022/04/05 04:31:26;;;;;;;;;;;;;;;10.39;100.00;98185.19;5078471;28;19919;-77
2022/04/05 04:33:53;;;;;;;;;;;;;;;10.24;100.00;98181.19;5096109;28;19920;-77
2022/04/05 04:36:21;;;;;;;;;;;;;;;10.47;100.00;98190.09;5096384;28;19927;-78
2022/04/05 04:38:48;;;;;;;;;;;;;;;10.28;100.00;98176.31;5078230;28;19920;-77
2022/04/05 04:41:15;;;;;;;;;;;;;;;10.34;100.00;98174.56;5078392;28;19920;-77
2022/04/05 04:43:42;;;;;;;;;;;;;;;10.15;100.00;98183.84;5077447;28;19927;-77
2022/04/05 04:46:10;;;;;;;;;;;;;;;10.17;100.00;98187.78;5111678;28;19927;-77
2022/04/05 04:48:36;;;;;;;;;;;;;;;10.24;100.00;98181.19;5095782;28;19943;-77
2022/04/05 04:51:03;;;;;;;;;;;;;;;10.23;100.00;98174.06;5111739;28;19965;-77
2022/04/05 04:53:31;;;;;;;;;;;;;;;10.29;100.00;98186.25;5096017;28;19920;-77
2022/04/05 04:55:58;;;;;;;;;;;;;;;10.11;100.00;98172.03;5061197;28;19921;-77
2022/04/05 04:58:28;;;;;;;;;;;;;;;10.14;100.00;98140.44;5095907;28;19974;-77
2022/04/05 05:00:55;;;;;;;;;;;;;;;10.46;100.00;98187.75;5095776;28;20364;-77
2022/04/05 05:03:22;;;;;;;;;;;;;;;10.25;100.00;98177.22;5111281;28;19920;-77
2022/04/05 05:05:50;;;;;;;;;;;;;;;10.25;100.00;98169.59;5095702;28;19920;-77
2022/04/05 05:08:17;;;;;;;;;;;;;;;10.54;100.00;98172.38;5077646;28;19967;-77
2022/04/05 05:10:44;;;;;;;;;;;;;;;10.21;100.00;98151.38;5095653;28;19973;-77
2022/04/05 05:13:11;;;;;;;;;;;;;;;10.01;100.00;98157.09;5094535;28;19927;-77
2022/04/05 05:15:38;;;;;;;;;;;;;;;10.19;100.00;98165.03;5094213;28;19927;-77
2022/04/05 05:18:05;;;;;;;;;;;;;;;10.33;100.00;98175.78;5110892;28;19955;-77
2022/04/05 05:20:32;;;;;;;;;;;;;;;10.19;100.00;98162.22;5077508;28;19927;-77
2022/04/05 05:22:59;;;;;;;;;;;;;;;10.38;100.00;98172.44;5095476;28;19920;-77
2022/04/05 05:25:26;;;;;;;;;;;;;;;10.17;100.00;98187.00;5095572;28;19920;-77
2022/04/05 05:27:55;;;;;;;;;;;;;;;10.14;100.00;98177.50;5077278;28;20313;-77
2022/04/05 05:30:22;;;;;;;;;;;;;;;10.17;100.00;98173.84;5094985;28;19924;-77
2022/04/05 05:32:50;;;;;;;;;;;;;;;10.09;100.00;98175.25;5075533;28;19924;-77
2022/04/05 05:35:18;;;;;;;;;;;;;;;9.95;100.00;98175.59;5095410;28;19920;-77
2022/04/05 05:37:46;;;;;;;;;;;;;;;9.98;100.00;98168.38;5077104;28;19920;-77
2022/04/05 05:40:13;;;;;;;;;;;;;;;10.11;100.00;98188.78;5076955;28;19967;-77
2022/04/05 05:42:47;;;;;;;;;;;;;;;9.82;100.00;98183.16;5095143;28;20007;-77
2022/04/05 05:45:15;;;;;;;;;;;;;;;9.94;100.00;98192.78;5094584;28;19919;-77
2022/04/05 05:47:42;;;;;;;;;;;;;;;9.90;100.00;98194.91;5076758;28;19959;-78
2022/04/05 05:50:12;;;;;;;;;;;;;;;10.22;100.00;98198.41;5076728;28;19945;-77
2022/04/05 05:52:41;;;;;;;;;;;;;;;10.17;100.00;98195.38;5076452;28;20453;-78
2022/04/05 05:55:15;;;;;;;;;;;;;;;10.03;100.00;98192.94;5075686;28;19967;-74
2022/04/05 05:57:43;;;;;;;;;;;;;;;10.03;100.00;98187.34;5071036;28;20363;-77
2022/04/05 06:00:16;;;;;;;;;;;;;;;9.66;100.00;98180.41;5070488;28;19924;-77
2022/04/05 06:02:44;;;;;;;;;;;;;;;9.80;100.00;98198.78;5091304;28;19940;-77
2022/04/05 06:05:11;;;;;;;;;;;;;;;9.89;100.00;98198.94;5073016;28;19963;-77
2022/04/05 06:07:41;;;;;;;;;;;;;;;9.96;100.00;98204.31;5091050;28;19924;-78
2022/04/05 06:10:09;;;;;;;;;;;;;;;9.53;100.00;98182.31;5091647;28;19924;-77
2022/04/05 06:12:41;;;;;;;;;;;;;;;9.54;100.00;98189.50;5091463;28;19981;-77
2022/04/05 06:15:09;;;;;;;;;;;;;;;9.65;100.00;98203.16;5072974;28;19924;-77
2022/04/05 06:17:37;;;;;;;;;;;;;;;10.07;100.00;98204.84;5091366;28;19930;-77
2022/04/05 06:20:05;;;;;;;;;;;;;;;9.88;100.00;98203.72;5073709;28;19924;-77
2022/04/05 06:22:39;;;;;;;;;;;;;;;9.83;100.00;98206.25;5091208;28;20068;-78
2022/04/05 06:25:07;;;;;;;;;;;;;;;9.88;100.00;98211.28;5091681;28;19963;-76
2022/04/05 06:27:35;;;;;;;;;;;;;;;9.84;100.00;98196.66;5091620;28;20011;-76
2022/04/05 06:30:02;;;;;;;;;;;;;;;10.17;100.00;98212.13;5072952;28;19924;-76
2022/04/05 06:32:31;;;;;;;;;;;;;;;10.34;100.00;98220.03;5090467;28;20003;-77
2022/04/05 06:34:58;;;;;;;;;;;;;;;10.25;100.00;98203.09;5068167;28;19924;-77
2022/04/05 06:37:27;;;;;;;;;;;;;;;10.16;100.00;98213.34;5071739;28;19924;-77
2022/04/05 06:39:54;;;;;;;;;;;;;;;10.34;100.00;98208.06;5088500;28;19924;-77
2022/04/05 06:42:21;;;;;;;;;;;;;;;10.03;100.00;98204.09;5106137;28;19924;-77
2022/04/05 06:44:49;;;;;;;;;;;;;;;10.21;100.00;98193.25;5088561;28;19978;-78
2022/04/05 06:47:17;;;;;;;;;;;;;;;10.03;100.00;98204.09;5055673;28;19958;-78
2022/04/05 06:49:48;;;;;;;;;;;;;;;10.09;100.00;98188.41;5071214;28;19965;-77
2022/04/05 06:52:15;;;;;;;;;;;;;;;10.04;100.00;98203.66;5090944;28;19924;-80
2022/04/05 06:54:42;;;;;;;;;;;;;;;9.87;100.00;98174.25;5088108;28;19970;-78
2022/04/05 06:57:11;;;;;;;;;;;;;;;10.07;100.00;98194.44;5088686;28;20007;-78
2022/04/05 06:59:51;;;;;;;;;;;;;;;10.14;100.00;98182.31;5090971;28;19942;-78
2022/04/05 07:02:23;;;;;;;;;;;;;;;10.18;100.00;98194.13;5073031;28;19927;-78
2022/04/05 07:05:04;;;;;;;;;;;;;;;9.98;100.00;98196.28;5053182;28;19951;-78
2022/04/05 07:07:31;;;;;;;;;;;;;;;10.07;100.00;98193.69;5073250;28;19924;-77
2022/04/05 07:09:59;;;;;;;;;;;;;;;10.09;100.00;98174.47;5092023;28;19924;-77
2022/04/05 07:12:26;;;;;;;;;;;;;;;10.01;100.00;98187.03;5093126;28;20019;-77
2022/04/05 07:14:58;;;;;;;;;;;;;;;9.85;100.00;98161.94;5091326;28;19928;-77
2022/04/05 07:17:51;;;;;;;;;;;;;;;9.91;100.00;98174.13;5072430;28;20298;-77
2022/04/05 07:20:34;;;;;;;;;;;;;;;9.92;100.00;98175.72;5084233;28;19993;-77
2022/04/05 07:23:01;;;;;;;;;;;;;;;9.64;100.00;98159.75;5079789;28;20031;-77
2022/04/05 07:25:28;;;;;;;;;;;;;;;9.70;100.00;98174.72;5052920;28;20015;-77
2022/04/05 07:27:55;;;;;;;;;;;;;;;9.95;100.00;98177.63;5110735;27;20286;-75
2022/04/05 07:30:24;;;;;;;;;;;;;;;9.98;100.00;98162.81;5085858;28;19967;-76
2022/04/05 07:32:51;;;;;;;;;;;;;;;9.68;100.00;98172.38;5082126;28;19958;-75
2022/04/05 07:35:19;;;;;;;;;;;;;;;9.82;100.00;98155.25;5087863;28;19928;-74
2022/04/05 07:37:46;;;;;;;;;;;;;;;9.73;100.00;98157.09;5100068;28;19924;-76
2022/04/05 07:40:14;;;;;;;;;;;;;;;9.67;100.00;98156.06;5080696;28;19990;-75
2022/04/05 07:42:42;;;;;;;;;;;;;;;9.64;100.00;98157.75;5101365;28;19946;-76
2022/04/05 07:45:10;;;;;;;;;;;;;;;9.79;100.00;98161.72;5092553;28;19934;-76
2022/04/05 07:47:37;;;;;;;;;;;;;;;9.76;100.00;98140.28;5100632;28;19924;-75
2022/04/05 07:50:05;;;;;;;;;;;;;;;9.64;100.00;98148.56;5099209;28;20326;-75
2022/04/05 07:52:32;;;;;;;;;;;;;;;9.81;100.00;98142.53;5110087;28;19962;-75
2022/04/05 07:55:00;;;;;;;;;;;;;;;9.70;100.00;98138.44;5075657;28;20591;-75
2022/04/05 07:57:27;;;;;;;;;;;;;;;9.62;100.00;98129.50;5086641;28;19932;-75
2022/04/05 07:59:55;;;;;;;;;;;;;;;9.80;100.00;98127.00;5102813;27;19928;-75
2022/04/05 08:02:22;;;;;;;;;;;;;;;9.96;100.00;98113.00;5102600;28;20283;-75
2022/04/05 08:04:58;;;;;;;;;;;;;;;9.99;100.00;98128.88;5078570;28;19931;-75
2022/04/05 08:07:25;;;;;;;;;;;;;;;9.75;100.00;98126.78;5093644;28;19942;-75
2022/04/05 08:09:52;;;;;;;;;;;;;;;9.69;100.00;98129.31;5099115;27;19924;-76
2022/04/05 08:12:19;;;;;;;;;;;;;;;9.64;100.00;98120.69;5095459;28;19935;-76
2022/04/05 08:14:46;;;;;;;;;;;;;;;9.61;100.00;98119.56;5087278;28;19925;-75
2022/04/05 08:17:13;;;;;;;;;;;;;;;9.66;100.00;98095.94;5088660;28;20329;-76
2022/04/05 08:19:41;;;;;;;;;;;;;;;9.74;100.00;98114.81;5070142;28;19925;-75
2022/04/05 08:22:08;;;;;;;;;;;;;;;9.61;100.00;98121.56;5104214;28;19930;-74
2022/04/05 08:24:36;;;;;;;;;;;;;;;9.62;100.00;98128.72;5091425;28;19956;-74
2022/04/05 08:27:05;;;;;;;;;;;;;;;9.79;100.00;98127.44;5085882;28;20209;-76
2022/04/05 08:36:25;;;;;;;;;;;;;;;9.83;100.00;98117.00;5088638;28;19939;-75
2022/04/05 08:38:52;;;;;;;;;;;;;;;9.70;100.00;98119.72;5090456;28;20394;-75
2022/04/05 08:41:20;;;;;;;;;;;;;;;9.75;100.00;98098.88;5092214;28;19935;-75
2022/04/05 08:43:52;;;;;;;;;;;;;;;9.50;100.00;98115.50;5093998;28;20304;-74
2022/04/05 08:46:20;;;;;;;;;;;;;;;9.68;100.00;98107.44;5071709;28;20369;-75
2022/04/05 08:48:48;;;;;;;;;;;;;;;9.58;100.00;98114.88;5093142;28;19924;-75
2022/04/05 08:51:15;;;;;;;;;;;;;;;9.62;100.00;98117.56;5086169;28;19923;-75
2022/04/05 08:53:42;;;;;;;;;;;;;;;9.61;100.00;98114.00;5110721;28;19955;-76
2022/04/05 08:56:09;;;;;;;;;;;;;;;9.54;100.00;98096.66;5095907;28;20406;-75
2022/04/05 08:58:38;;;;;;;;;;;;;;;9.48;100.00;98101.22;5105359;28;19947;-75
2022/04/05 09:01:05;;;;;;;;;;;;;;;9.63;100.00;98119.13;5094041;28;20355;-75
2022/04/05 09:03:36;;;;;;;;;;;;;;;9.65;100.00;98122.28;5096760;28;20377;-76
2022/04/05 09:06:26;;;;;;;;;;;;;;;9.43;100.00;98091.38;5108969;28;19974;-75
2022/04/05 09:09:11;;;;;;;;;;;;;;;9.52;100.00;98122.22;5100376;28;19939;-75
2022/04/05 09:11:42;;;;;;;;;;;;;;;9.58;100.00;98128.81;5077838;28;19963;-74
2022/04/05 09:14:10;;;;;;;;;;;;;;;9.41;100.00;98120.91;5084804;28;20358;-75
2022/04/05 09:16:37;;;;;;;;;;;;;;;9.62;100.00;98114.78;5074362;28;19924;-74
2022/04/05 09:19:14;;;;;;;;;;;;;;;9.46;100.00;98132.34;5096738;28;19924;-74
2022/04/05 09:21:48;;;;;;;;;;;;;;;9.31;100.00;98117.19;5095686;28;20640;-75
2022/04/05 09:24:16;;;;;;;;;;;;;;;9.63;100.00;98133.88;5078294;28;20391;-75
2022/04/05 09:26:46;;;;;;;;;;;;;;;9.72;100.00;98131.22;5085259;28;19946;-76
2022/04/05 09:29:15;;;;;;;;;;;;;;;9.47;100.00;98133.09;5103708;28;19996;-75
2022/04/05 09:31:48;;;;;;;;;;;;;;;9.42;100.00;98139.97;5094765;28;19931;-75
2022/04/05 09:34:17;;;;;;;;;;;;;;;9.62;100.00;98139.88;5092858;28;19985;-75
2022/04/05 09:36:48;;;;;;;;;;;;;;;9.53;100.00;98153.66;5099821;28;19954;-74
2022/04/05 09:39:25;;;;;;;;;;;;;;;9.36;100.00;98133.38;5103504;28;19924;-75
2022/04/05 09:42:03;;;;;;;;;;;;;;;9.37;100.00;98148.09;5092211;28;19973;-75
2022/04/05 09:44:32;;;;;;;;;;;;;;;9.12;100.00;98130.00;5085878;28;21078;-75
2022/04/05 09:47:06;;;;;;;;;;;;;;;9.20;100.00;98119.47;5095353;28;19936;-75
2022/04/05 09:49:36;;;;;;;;;;;;;;;9.32;100.00;98143.03;5105302;28;19969;-75
2022/04/05 09:52:21;;;;;;;;;;;;;;;9.25;100.00;98159.97;5093925;28;19932;-75
2022/04/05 09:54:48;;;;;;;;;;;;;;;9.50;100.00;98154.53;5097982;28;19973;-75
2022/04/05 09:57:26;;;;;;;;;;;;;;;9.47;100.00;98138.66;5099223;28;20383;-75
2022/04/05 10:00:04;;;;;;;;;;;;;;;9.53;100.00;98153.66;5107976;28;19923;-75
2022/04/05 10:02:56;;;;;;;;;;;;;;;9.50;100.00;98143.38;5097280;28;19927;-75
2022/04/05 10:05:23;;;;;;;;;;;;;;;9.65;100.00;98156.50;5079113;28;19977;-75
2022/04/05 10:07:50;;;;;;;;;;;;;;;9.67;100.00;98158.84;5094331;28;19932;-75
2022/04/05 10:10:19;;;;;;;;;;;;;;;9.55;100.00;98162.38;5107049;28;20433;-75
2022/04/05 10:12:47;;;;;;;;;;;;;;;9.66;100.00;98157.31;5098272;28;20366;-75
2022/04/05 10:15:14;;;;;;;;;;;;;;;9.36;100.00;98158.47;5098881;28;20034;-75
2022/04/05 10:17:45;;;;;;;;;;;;;;;9.57;100.00;98162.72;5106868;28;19924;-75
2022/04/05 10:20:13;;;;;;;;;;;;;;;9.66;100.00;98162.88;5093270;28;19957;-75
2022/04/05 10:22:41;;;;;;;;;;;;;;;9.71;100.00;98154.00;5103003;28;20318;-75
2022/04/05 10:25:09;;;;;;;;;;;;;;;9.65;100.00;98147.38;5095704;28;20399;-75
2022/04/05 10:27:36;;;;;;;;;;;;;;;9.72;100.00;98144.38;5083505;28;20336;-75
2022/04/05 10:30:18;;;;;;;;;;;;;;;9.75;100.00;98146.28;5105316;28;19931;-75
2022/04/05 10:32:57;;;;;;;;;;;;;;;9.92;100.00;98154.16;5098674;28;20052;-75
2022/04/05 10:35:25;;;;;;;;;;;;;;;9.65;100.00;98150.16;5081451;28;19930;-74
2022/04/05 10:38:09;;;;;;;;;;;;;;;9.90;100.00;98139.09;5073890;28;19924;-75
2022/04/05 10:40:36;;;;;;;;;;;;;;;9.80;100.00;98129.03;5096734;28;19927;-74
2022/04/05 10:43:19;;;;;;;;;;;;;;;10.07;100.00;98121.88;5109686;28;19923;-75
2022/04/05 11:04:44;;;;;;;;;;;;;;;10.28;100.00;98120.47;5022901;28;20481;-74
2022/04/05 11:07:12;;;;;;;;;;;;;;;10.32;100.00;98110.78;5034031;28;20438;-74
2022/04/05 11:09:42;;;;;;;;;;;;;;;10.22;100.00;98113.88;5041105;28;19925;-75
2022/04/05 11:12:11;;;;;;;;;;;;;;;10.25;100.00;98110.22;5043739;28;20373;-75
2022/04/05 11:14:39;;;;;;;;;;;;;;;10.22;100.00;98116.69;5042235;28;19925;-76
2022/04/05 11:17:07;;;;;;;;;;;;;;;10.59;100.00;98113.13;5033845;28;20550;-74
2022/04/05 11:19:41;;;;;;;;;;;;;;;10.70;100.00;98108.81;5026418;28;20011;-75
2022/04/05 11:22:20;;;;;;;;;;;;;;;10.25;100.00;98099.03;5016172;28;19925;-75
2022/04/05 11:24:52;;;;;;;;;;;;;;;10.49;100.00;98114.25;5035370;28;20399;-75
2022/04/05 11:27:45;;;;;;;;;;;;;;;10.38;100.00;98102.63;5080333;28;19924;-76
2022/04/05 11:30:28;;;;;;;;;;;;;;;10.69;100.00;98120.41;5082318;28;20443;-74
2022/04/05 11:33:20;;;;;;;;;;;;;;;10.86;100.00;98105.88;5097763;28;19931;-75
2022/04/05 11:35:52;;;;;;;;;;;;;;;10.90;100.00;98100.19;5106018;28;21312;-76
2022/04/05 11:38:19;;;;;;;;;;;;;;;10.88;100.00;98097.84;5097064;28;19951;-75
2022/04/05 11:40:50;;;;;;;;;;;;;;;10.84;100.00;98088.00;5098853;28;19990;-75
2022/04/05 11:43:17;;;;;;;;;;;;;;;11.23;100.00;98083.91;5105515;28;19945;-75
2022/04/05 11:45:47;;;;;;;;;;;;;;;11.23;100.00;98095.88;5112256;28;19928;-75
2022/04/05 11:48:18;;;;;;;;;;;;;;;11.30;100.00;98078.84;5113521;28;20148;-75
2022/04/05 11:50:45;;;;;;;;;;;;;;;10.80;100.00;98070.56;5093452;28;19935;-74
2022/04/05 11:53:22;;;;;;;;;;;;;;;10.66;100.00;98079.41;5056628;28;19955;-74
2022/04/05 11:56:02;;;;;;;;;;;;;;;10.82;100.00;98070.91;5077527;28;19986;-74
2022/04/05 11:58:30;;;;;;;;;;;;;;;10.87;100.00;98071.09;5105222;28;20260;-75
2022/04/05 12:00:58;;;;;;;;;;;;;;;11.18;100.00;98076.88;5117327;28;20374;-74
2022/04/05 12:03:25;;;;;;;;;;;;;;;11.01;100.00;98074.69;5099052;28;19978;-74
2022/04/05 12:05:52;;;;;;;;;;;;;;;11.17;100.00;98083.69;5099208;28;19924;-75
2022/04/05 12:08:20;;;;;;;;;;;;;;;11.28;100.00;98077.75;5090548;28;19930;-75
2022/04/05 12:10:47;;;;;;;;;;;;;;;10.96;100.00;98070.44;5096825;28;19959;-75
2022/04/05 12:13:14;;;;;;;;;;;;;;;10.76;100.00;98050.34;5096983;28;19931;-75
2022/04/05 12:15:41;;;;;;;;;;;;;;;10.92;100.00;98083.72;5096886;28;19924;-75
2022/04/05 12:18:19;;;;;;;;;;;;;;;10.86;100.00;98074.34;5078315;28;19954;-76
2022/04/05 12:21:06;;;;;;;;;;;;;;;10.85;100.00;98065.19;5096603;28;19977;-76
2022/04/05 12:23:39;;;;;;;;;;;;;;;11.20;100.00;98062.44;4994103;28;20213;-76
2022/04/05 12:26:06;;;;;;;;;;;;;;;11.16;100.00;98070.97;5035053;28;19925;-76
2022/04/05 12:28:37;;;;;;;;;;;;;;;11.08;100.00;98066.84;5035804;28;20356;-76
2022/04/05 12:31:08;;;;;;;;;;;;;;;11.06;100.00;98063.69;5033488;28;19931;-76
2022/04/05 12:33:36;;;;;;;;;;;;;;;11.15;100.00;98052.59;5033885;28;19929;-76
2022/04/05 12:36:05;;;;;;;;;;;;;;;11.28;100.00;98053.38;5033815;28;19925;-76
2022/04/05 12:38:33;;;;;;;;;;;;;;;11.06;100.00;98046.16;5033737;28;19936;-76
2022/04/05 12:41:02;;;;;;;;;;;;;;;11.08;100.00;98066.84;5030282;28;19928;-76
2022/04/05 12:43:29;;;;;;;;;;;;;;;11.11;100.00;98042.78;5113293;28;19931;-76
2022/04/05 12:46:07;;;;;;;;;;;;;;;10.85;100.00;98050.44;5115885;28;19930;-76
2022/04/05 12:48:34;;;;;;;;;;;;;;;11.11;100.00;98053.97;5116274;28;19930;-75
2022/04/05 12:51:02;;;;;;;;;;;;;;;10.82;100.00;98054.13;5116481;28;20464;-75
2022/04/05 12:53:35;;;;;;;;;;;;;;;10.88;100.00;98052.34;5108215;28;19928;-75
2022/04/05 12:56:08;;;;;;;;;;;;;;;10.87;100.00;98050.78;5095998;28;20442;-76
2022/04/05 12:58:36;;;;;;;;;;;;;;;11.04;100.00;98055.00;5095898;28;19928;-76
2022/04/05 13:01:16;;;;;;;;;;;;;;;11.42;100.00;98069.63;5091114;28;19954;-76
2022/04/05 13:03:43;;;;;;;;;;;;;;;11.47;100.00;98059.88;5095068;28;19931;-76
2022/04/05 13:06:20;;;;;;;;;;;;;;;11.42;100.00;98052.84;5105111;28;19924;-75
2022/04/05 13:08:48;;;;;;;;;;;;;;;11.68;100.00;98054.34;5104769;28;19931;-77
2022/04/05 13:11:32;;;;;;;;;;;;;;;11.52;100.00;98050.94;5077571;28;19931;-76
2022/04/05 13:14:26;;;;;;;;;;;;;;;11.54;100.00;98029.66;5065276;28;19924;-77
2022/04/05 13:17:00;;;;;;;;;;;;;;;11.63;100.00;98037.38;5070458;28;19924;-75
2022/04/05 13:19:27;;;;;;;;;;;;;;;11.46;100.00;98035.97;5108587;28;19977;-77